createdAt,value
2023-03-21T00:02:34.150Z,9.65
2023-03-21T00:12:58.428Z,9.63
2023-03-21T00:23:19.831Z,9.66
2023-03-21T00:33:41.234Z,9.70
2023-03-21T00:44:04.062Z,9.68
2023-03-21T00:54:25.990Z,9.69
2023-03-21T01:04:47.372Z,9.67
2023-03-21T01:15:08.968Z,9.71
2023-03-21T01:25:30.340Z,9.75
2023-03-21T01:35:57.617Z,9.79
2023-03-21T01:46:30.206Z,9.79
2023-03-21T01:56:54.815Z,9.83
2023-03-21T02:07:18.018Z,9.84
2023-03-21T02:17:45.186Z,9.86
2023-03-21T02:28:23.499Z,9.89
2023-03-21T02:38:53.008Z,9.88
2023-03-21T02:49:38.305Z,9.89
2023-03-21T03:00:07.426Z,9.91
2023-03-21T03:10:41.680Z,9.86
2023-03-21T03:21:11.260Z,9.92
2023-03-21T03:31:38.041Z,9.93
2023-03-21T03:42:12.622Z,9.97
2023-03-21T03:52:55.260Z,9.97
2023-03-21T04:03:18.645Z,9.98
2023-03-21T04:13:40.194Z,10.02
2023-03-21T04:24:01.607Z,10.07
2023-03-21T04:34:24.041Z,10.06
2023-03-21T04:44:46.270Z,10.12
2023-03-21T04:55:10.079Z,10.15
2023-03-21T05:05:31.685Z,10.15
2023-03-21T05:15:53.048Z,10.20
2023-03-21T05:26:14.454Z,10.16
2023-03-21T05:36:36.134Z,10.21
2023-03-21T05:46:57.513Z,10.26
2023-03-21T05:57:19.202Z,10.33
2023-03-21T06:07:40.796Z,10.32
2023-03-21T06:18:03.325Z,10.35
2023-03-21T06:28:24.688Z,10.35
2023-03-21T06:38:46.940Z,10.31
2023-03-21T06:49:09.130Z,10.32
2023-03-21T06:59:31.164Z,10.33
2023-03-21T07:09:52.576Z,10.38
2023-03-21T07:20:14.291Z,10.41
2023-03-21T07:30:36.832Z,10.49
2023-03-21T07:40:58.809Z,10.51
2023-03-21T07:51:20.330Z,10.58
2023-03-21T08:01:41.827Z,10.57
2023-03-21T08:12:04.170Z,10.63
2023-03-21T08:22:25.678Z,10.72
2023-03-21T08:32:47.336Z,10.76
2023-03-21T08:43:08.965Z,10.75
2023-03-21T08:53:30.381Z,10.74
2023-03-21T09:03:51.806Z,10.73
2023-03-21T09:14:13.259Z,10.74
2023-03-21T09:24:34.717Z,10.83
2023-03-21T09:34:57.480Z,10.89
2023-03-21T09:45:21.240Z,10.95
2023-03-21T09:55:46.955Z,10.95
2023-03-21T10:06:15.275Z,11.02
2023-03-21T10:16:48.640Z,11.06
2023-03-21T10:27:13.161Z,11.01
2023-03-21T10:37:36.274Z,11.09
2023-03-21T10:47:58.202Z,11.21
2023-03-21T10:58:27.193Z,11.35
2023-03-21T11:08:55.835Z,11.45
2023-03-21T11:19:18.864Z,11.59
2023-03-21T11:29:41.299Z,11.63
2023-03-21T11:40:23.558Z,11.69
2023-03-21T11:50:47.315Z,11.68
2023-03-21T12:01:10.081Z,11.67
2023-03-21T12:11:31.468Z,11.62
2023-03-21T12:21:56.062Z,11.55
2023-03-21T12:32:36.258Z,11.51
2023-03-21T12:43:07.743Z,11.55
2023-03-21T12:53:36.073Z,11.59
2023-03-21T13:04:17.937Z,11.70
2023-03-21T13:14:44.294Z,11.73
2023-03-21T13:25:07.544Z,11.68
2023-03-21T13:35:38.422Z,11.77
2023-03-21T13:46:50.394Z,11.81
2023-03-21T13:57:34.460Z,11.88
2023-03-21T14:08:06.036Z,11.90
2023-03-21T14:18:53.610Z,11.94
2023-03-21T14:29:26.750Z,11.91
2023-03-21T14:39:57.262Z,11.95
2023-03-21T14:50:19.545Z,11.96
2023-03-21T15:00:41.187Z,11.95
2023-03-21T15:11:08.309Z,11.99
2023-03-21T15:21:32.169Z,12.10
2023-03-21T15:31:53.666Z,12.16
2023-03-21T15:42:33.830Z,12.22
2023-03-21T15:52:56.160Z,12.27
2023-03-21T16:03:20.829Z,12.39
2023-03-21T16:13:42.290Z,12.45
2023-03-21T16:24:04.561Z,12.58
2023-03-21T16:34:27.055Z,12.53
2023-03-21T16:44:48.443Z,12.58
2023-03-21T16:55:09.852Z,12.56
2023-03-21T17:05:31.317Z,12.47
2023-03-21T17:15:52.703Z,12.46
2023-03-21T17:26:34.330Z,12.45
2023-03-21T17:36:55.734Z,12.40
2023-03-21T17:47:17.254Z,12.31
2023-03-21T17:57:38.912Z,12.33
2023-03-21T18:08:15.676Z,12.32
2023-03-21T18:18:38.031Z,12.30
2023-03-21T18:39:42.457Z,12.31
2023-03-21T18:50:16.255Z,12.33
2023-03-21T19:00:38.014Z,12.35
2023-03-21T19:11:03.271Z,12.31
2023-03-21T19:21:27.351Z,12.21
2023-03-21T19:31:51.001Z,12.09
2023-03-21T19:42:17.009Z,12.01
2023-03-21T19:52:39.002Z,11.91
2023-03-21T20:03:00.517Z,11.85
2023-03-21T20:13:21.936Z,11.78
2023-03-21T20:23:44.052Z,11.75
2023-03-21T20:34:05.445Z,11.76
2023-03-21T20:44:57.154Z,11.69
2023-03-21T20:55:11.326Z,11.66
2023-03-21T21:05:34.905Z,11.66
2023-03-21T21:15:56.511Z,11.70
2023-03-21T21:26:17.937Z,11.67
2023-03-21T21:36:39.342Z,11.69
2023-03-21T21:47:04.124Z,11.74
2023-03-21T21:57:25.526Z,11.65
2023-03-21T22:07:47.666Z,11.57
2023-03-21T22:18:10.100Z,11.57
2023-03-21T22:28:31.492Z,11.60
2023-03-21T22:38:52.867Z,11.59
2023-03-21T22:49:14.273Z,11.54
2023-03-21T22:59:35.741Z,11.45
2023-03-21T23:09:57.193Z,11.36
2023-03-21T23:20:18.626Z,11.23
2023-03-21T23:30:40.595Z,11.11
2023-03-21T23:41:06.358Z,10.98
2023-03-21T23:51:27.769Z,10.95
